Current Weather

Middle Peninsula Rgnl

West Point, Virginia (KFYJ)

Report from: Wednesday, April 24, 2024 6:35 PM UTC
Current time: Wednesday, April 24, 2024 6:52 PM UTC

Nearby weather – Weather history – Daily summaries
Weather forecast

Temperature20.6°C (69.1°F)
Dew point10.6°C (51.1°F)
Winds Calm
Visibility10 mi. (16.1 km)
Clouds Sky clear
Altimeter29.97 in.Hg (1015 mB)
Relative humidity53 %
Density altitude780 ft. (238 m)
Remarks Fully automated report
Automated weather observing station without precipitation discriminator
Flight conditions Visual Meteorological Conditions
Raw dataKFYJ 241835Z AUTO 00000KT 10SM CLR 21/11 A2997 RMK AO1 T02060106
An error has occurred. This application may no longer respond until reloaded. Reload 🗙